sensor_id;sensor_type;location;lat;lon;timestamp;pressure;altitude;pressure_sealevel;temperature;humidity
76374;BME280;65197;50.164;8.012;2023-08-01T00:02:16;71420.09;;;-144.13;100.00
76374;BME280;65197;50.164;8.012;2023-08-01T00:04:41;71412.31;;;-144.13;100.00
76374;BME280;65197;50.164;8.012;2023-08-01T00:07:07;71410.34;;;-144.13;100.00
76374;BME280;65197;50.164;8.012;2023-08-01T00:09:32;71404.50;;;-144.13;100.00
76374;BME280;65197;50.164;8.012;2023-08-01T00:11:57;71402.56;;;-144.13;100.00
76374;BME280;65197;50.164;8.012;2023-08-01T00:14:23;71402.56;;;-144.13;100.00
76374;BME280;65197;50.164;8.012;2023-08-01T00:16:50;71396.69;;;-144.13;100.00
76374;BME280;65197;50.164;8.012;2023-08-01T00:19:15;71392.81;;;-144.13;100.00
76374;BME280;65197;50.164;8.012;2023-08-01T00:21:41;71388.91;;;-144.13;100.00
76374;BME280;65197;50.164;8.012;2023-08-01T00:24:06;71385.00;;;-144.13;100.00
76374;BME280;65197;50.164;8.012;2023-08-01T00:26:33;71381.09;;;-144.13;100.00
76374;BME280;65197;50.164;8.012;2023-08-01T00:28:58;71375.25;;;-144.13;100.00
76374;BME280;65197;50.164;8.012;2023-08-01T00:31:24;71367.47;;;-144.13;100.00
76374;BME280;65197;50.164;8.012;2023-08-01T00:33:49;71361.59;;;-144.13;100.00
76374;BME280;65197;50.164;8.012;2023-08-01T00:36:15;71365.50;;;-144.13;100.00
76374;BME280;65197;50.164;8.012;2023-08-01T00:38:40;71361.59;;;-144.13;100.00
76374;BME280;65197;50.164;8.012;2023-08-01T00:41:11;71363.56;;;-144.13;100.00
76374;BME280;65197;50.164;8.012;2023-08-01T00:43:37;71359.66;;;-144.13;100.00
76374;BME280;65197;50.164;8.012;2023-08-01T00:46:06;71344.06;;;-144.13;100.00
76374;BME280;65197;50.164;8.012;2023-08-01T00:48:33;71349.91;;;-144.13;100.00
76374;BME280;65197;50.164;8.012;2023-08-01T00:51:00;71338.22;;;-144.13;100.00
76374;BME280;65197;50.164;8.012;2023-08-01T00:53:26;71347.97;;;-144.13;100.00
76374;BME280;65197;50.164;8.012;2023-08-01T00:55:52;71353.81;;;-144.13;100.00
76374;BME280;65197;50.164;8.012;2023-08-01T00:58:20;71344.06;;;-144.13;100.00
76374;BME280;65197;50.164;8.012;2023-08-01T01:00:46;71336.25;;;-144.13;100.00
76374;BME280;65197;50.164;8.012;2023-08-01T01:03:12;71330.41;;;-144.13;100.00
76374;BME280;65197;50.164;8.012;2023-08-01T01:05:41;71322.63;;;-144.13;100.00
76374;BME280;65197;50.164;8.012;2023-08-01T01:08:08;71310.91;;;-144.13;100.00
76374;BME280;65197;50.164;8.012;2023-08-01T01:10:33;71295.31;;;-144.13;100.00
76374;BME280;65197;50.164;8.012;2023-08-01T01:12:59;71293.38;;;-144.13;100.00
76374;BME280;65197;50.164;8.012;2023-08-01T01:15:24;71303.13;;;-144.13;100.00
76374;BME280;65197;50.164;8.012;2023-08-01T01:17:50;71287.53;;;-144.13;100.00
76374;BME280;65197;50.164;8.012;2023-08-01T01:20:20;71281.69;;;-144.13;100.00
76374;BME280;65197;50.164;8.012;2023-08-01T01:22:45;71271.94;;;-144.13;100.00
76374;BME280;65197;50.164;8.012;2023-08-01T01:25:12;71281.69;;;-144.13;100.00
76374;BME280;65197;50.164;8.012;2023-08-01T01:27:37;71279.72;;;-144.13;100.00
76374;BME280;65197;50.164;8.012;2023-08-01T01:30:05;71275.81;;;-144.13;100.00
76374;BME280;65197;50.164;8.012;2023-08-01T01:32:32;71271.94;;;-144.13;100.00
76374;BME280;65197;50.164;8.012;2023-08-01T01:34:57;71268.03;;;-144.13;100.00
76374;BME280;65197;50.164;8.012;2023-08-01T01:37:23;71268.03;;;-144.13;100.00
76374;BME280;65197;50.164;8.012;2023-08-01T01:39:49;71271.94;;;-144.13;100.00
76374;BME280;65197;50.164;8.012;2023-08-01T01:42:14;71264.13;;;-144.13;100.00
76374;BME280;65197;50.164;8.012;2023-08-01T01:44:40;71268.03;;;-144.13;100.00
76374;BME280;65197;50.164;8.012;2023-08-01T01:47:05;71264.13;;;-144.13;100.00
76374;BME280;65197;50.164;8.012;2023-08-01T01:49:31;71268.03;;;-144.13;100.00
76374;BME280;65197;50.164;8.012;2023-08-01T01:51:56;71256.31;;;-144.13;100.00
76374;BME280;65197;50.164;8.012;2023-08-01T01:54:21;71240.72;;;-144.13;100.00
76374;BME280;65197;50.164;8.012;2023-08-01T01:56:47;71238.78;;;-144.13;100.00
76374;BME280;65197;50.164;8.012;2023-08-01T01:59:12;71240.72;;;-144.13;100.00
76374;BME280;65197;50.164;8.012;2023-08-01T02:01:38;71227.09;;;-144.13;100.00
76374;BME280;65197;50.164;8.012;2023-08-01T02:04:03;71223.19;;;-144.13;100.00
76374;BME280;65197;50.164;8.012;2023-08-01T02:06:28;71223.19;;;-144.13;100.00
76374;BME280;65197;50.164;8.012;2023-08-01T02:08:54;71215.38;;;-144.13;100.00
76374;BME280;65197;50.164;8.012;2023-08-01T02:11:19;71209.53;;;-144.13;100.00
76374;BME280;65197;50.164;8.012;2023-08-01T02:13:45;71205.63;;;-144.13;100.00
76374;BME280;65197;50.164;8.012;2023-08-01T02:16:10;71201.75;;;-144.13;100.00
76374;BME280;65197;50.164;8.012;2023-08-01T02:18:36;71201.75;;;-144.13;100.00
76374;BME280;65197;50.164;8.012;2023-08-01T02:21:02;71193.94;;;-144.13;100.00
76374;BME280;65197;50.164;8.012;2023-08-01T02:23:27;71197.84;;;-144.13;100.00
76374;BME280;65197;50.164;8.012;2023-08-01T02:25:54;71190.03;;;-144.13;100.00
76374;BME280;65197;50.164;8.012;2023-08-01T02:28:19;71186.16;;;-144.13;100.00
76374;BME280;65197;50.164;8.012;2023-08-01T02:30:45;71176.41;;;-144.13;100.00
76374;BME280;65197;50.164;8.012;2023-08-01T02:33:10;71178.34;;;-144.13;100.00
76374;BME280;65197;50.164;8.012;2023-08-01T02:35:36;71174.44;;;-144.13;100.00
76374;BME280;65197;50.164;8.012;2023-08-01T02:38:02;71166.66;;;-144.13;100.00
76374;BME280;65197;50.164;8.012;2023-08-01T02:40:28;71162.75;;;-144.13;100.00
76374;BME280;65197;50.164;8.012;2023-08-01T02:42:54;71162.75;;;-144.13;100.00
76374;BME280;65197;50.164;8.012;2023-08-01T02:45:19;71170.53;;;-144.13;100.00
76374;BME280;65197;50.164;8.012;2023-08-01T02:47:44;71158.84;;;-144.13;100.00
76374;BME280;65197;50.164;8.012;2023-08-01T02:50:10;71156.91;;;-144.13;100.00
76374;BME280;65197;50.164;8.012;2023-08-01T02:52:35;71153.00;;;-144.13;100.00
76374;BME280;65197;50.164;8.012;2023-08-01T02:55:00;71162.75;;;-144.13;100.00
76374;BME280;65197;50.164;8.012;2023-08-01T02:57:26;71162.75;;;-144.13;100.00
76374;BME280;65197;50.164;8.012;2023-08-01T02:59:51;71158.84;;;-144.13;100.00
76374;BME280;65197;50.164;8.012;2023-08-01T03:02:18;71153.00;;;-144.13;100.00
76374;BME280;65197;50.164;8.012;2023-08-01T03:04:44;71158.84;;;-144.13;100.00
76374;BME280;65197;50.164;8.012;2023-08-01T03:07:10;71162.75;;;-144.13;100.00
76374;BME280;65197;50.164;8.012;2023-08-01T03:09:35;71158.84;;;-144.13;100.00
76374;BME280;65197;50.164;8.012;2023-08-01T03:12:00;71154.94;;;-144.13;100.00
76374;BME280;65197;50.164;8.012;2023-08-01T03:14:26;71151.06;;;-144.13;100.00
76374;BME280;65197;50.164;8.012;2023-08-01T03:16:51;71158.84;;;-144.13;100.00
76374;BME280;65197;50.164;8.012;2023-08-01T03:19:17;71139.34;;;-144.13;100.00
76374;BME280;65197;50.164;8.012;2023-08-01T03:21:43;71151.06;;;-144.13;100.00
76374;BME280;65197;50.164;8.012;2023-08-01T03:24:09;71147.16;;;-144.13;100.00
76374;BME280;65197;50.164;8.012;2023-08-01T03:26:37;71135.44;;;-144.13;100.00
76374;BME280;65197;50.164;8.012;2023-08-01T03:29:02;71143.25;;;-144.13;100.00
76374;BME280;65197;50.164;8.012;2023-08-01T03:31:28;71151.06;;;-144.13;100.00
76374;BME280;65197;50.164;8.012;2023-08-01T03:33:54;71135.44;;;-144.13;100.00
76374;BME280;65197;50.164;8.012;2023-08-01T03:36:20;71135.44;;;-144.13;100.00
76374;BME280;65197;50.164;8.012;2023-08-01T03:38:45;71127.66;;;-144.13;100.00
76374;BME280;65197;50.164;8.012;2023-08-01T03:41:11;71119.84;;;-144.13;100.00
76374;BME280;65197;50.164;8.012;2023-08-01T03:43:36;71121.81;;;-144.13;100.00
76374;BME280;65197;50.164;8.012;2023-08-01T03:46:01;71115.97;;;-144.13;100.00
76374;BME280;65197;50.164;8.012;2023-08-01T03:48:27;71123.75;;;-144.13;100.00
76374;BME280;65197;50.164;8.012;2023-08-01T03:50:52;71127.66;;;-144.13;100.00
76374;BME280;65197;50.164;8.012;2023-08-01T03:53:18;71131.56;;;-144.13;100.00
76374;BME280;65197;50.164;8.012;2023-08-01T03:55:47;71127.66;;;-144.13;100.00
76374;BME280;65197;50.164;8.012;2023-08-01T03:58:13;71129.59;;;-144.13;100.00
76374;BME280;65197;50.164;8.012;2023-08-01T04:00:39;71133.50;;;-144.13;100.00
76374;BME280;65197;50.164;8.012;2023-08-01T04:03:04;71135.44;;;-144.13;100.00
76374;BME280;65197;50.164;8.012;2023-08-01T04:05:30;71135.44;;;-144.13;100.00
76374;BME280;65197;50.164;8.012;2023-08-01T04:07:56;71133.50;;;-144.13;100.00
76374;BME280;65197;50.164;8.012;2023-08-01T04:10:22;71123.75;;;-144.13;100.00
76374;BME280;65197;50.164;8.012;2023-08-01T04:12:47;71119.84;;;-144.13;100.00
76374;BME280;65197;50.164;8.012;2023-08-01T04:15:12;71123.75;;;-144.13;100.00
76374;BME280;65197;50.164;8.012;2023-08-01T04:17:38;71129.59;;;-144.13;100.00
76374;BME280;65197;50.164;8.012;2023-08-01T04:20:04;71139.34;;;-144.13;100.00
76374;BME280;65197;50.164;8.012;2023-08-01T04:22:29;71143.25;;;-144.13;100.00
76374;BME280;65197;50.164;8.012;2023-08-01T04:24:55;71139.34;;;-144.13;100.00
76374;BME280;65197;50.164;8.012;2023-08-01T04:27:20;71129.59;;;-144.13;100.00
76374;BME280;65197;50.164;8.012;2023-08-01T04:29:46;71119.84;;;-144.13;100.00
76374;BME280;65197;50.164;8.012;2023-08-01T04:32:11;71115.97;;;-144.13;100.00
76374;BME280;65197;50.164;8.012;2023-08-01T04:34:39;71114.00;;;-144.13;100.00
76374;BME280;65197;50.164;8.012;2023-08-01T04:37:04;71112.06;;;-144.13;100.00
76374;BME280;65197;50.164;8.012;2023-08-01T04:39:29;71110.09;;;-144.13;100.00
76374;BME280;65197;50.164;8.012;2023-08-01T04:41:55;71104.25;;;-144.13;100.00
76374;BME280;65197;50.164;8.012;2023-08-01T04:44:20;71112.06;;;-144.13;100.00
76374;BME280;65197;50.164;8.012;2023-08-01T04:46:47;71110.09;;;-144.13;100.00
76374;BME280;65197;50.164;8.012;2023-08-01T04:49:13;71100.38;;;-144.13;100.00
76374;BME280;65197;50.164;8.012;2023-08-01T04:51:38;71075.00;;;-144.13;100.00
76374;BME280;65197;50.164;8.012;2023-08-01T04:54:04;71115.97;;;-144.13;100.00
76374;BME280;65197;50.164;8.012;2023-08-01T04:56:29;71112.06;;;-144.13;100.00
76374;BME280;65197;50.164;8.012;2023-08-01T04:58:54;71104.25;;;-144.13;100.00
76374;BME280;65197;50.164;8.012;2023-08-01T05:01:20;71106.22;;;-144.13;100.00
76374;BME280;65197;50.164;8.012;2023-08-01T05:03:46;71102.31;;;-144.13;100.00
76374;BME280;65197;50.164;8.012;2023-08-01T05:06:11;71104.25;;;-144.13;100.00
76374;BME280;65197;50.164;8.012;2023-08-01T05:08:36;71115.97;;;-144.13;100.00
76374;BME280;65197;50.164;8.012;2023-08-01T05:11:02;71115.97;;;-144.13;100.00
76374;BME280;65197;50.164;8.012;2023-08-01T05:13:27;71119.84;;;-144.13;100.00
76374;BME280;65197;50.164;8.012;2023-08-01T05:15:53;71119.84;;;-144.13;100.00
76374;BME280;65197;50.164;8.012;2023-08-01T05:18:18;71125.72;;;-144.13;100.00
76374;BME280;65197;50.164;8.012;2023-08-01T05:20:44;71135.44;;;-144.13;100.00
76374;BME280;65197;50.164;8.012;2023-08-01T05:23:10;71123.75;;;-144.13;100.00
76374;BME280;65197;50.164;8.012;2023-08-01T05:25:35;71127.66;;;-144.13;100.00
76374;BME280;65197;50.164;8.012;2023-08-01T05:28:01;71123.75;;;-144.13;100.00
76374;BME280;65197;50.164;8.012;2023-08-01T05:30:26;71147.16;;;-144.13;100.00
76374;BME280;65197;50.164;8.012;2023-08-01T05:32:52;71154.94;;;-144.13;100.00
76374;BME280;65197;50.164;8.012;2023-08-01T05:35:19;71160.78;;;-144.13;100.00
76374;BME280;65197;50.164;8.012;2023-08-01T05:37:45;71166.66;;;-144.13;100.00
76374;BME280;65197;50.164;8.012;2023-08-01T05:40:11;71180.28;;;-144.13;100.00
76374;BME280;65197;50.164;8.012;2023-08-01T05:42:36;71193.94;;;-144.13;100.00
76374;BME280;65197;50.164;8.012;2023-08-01T05:45:02;71205.63;;;-144.13;100.00
76374;BME280;65197;50.164;8.012;2023-08-01T05:47:29;71209.53;;;-144.13;100.00
76374;BME280;65197;50.164;8.012;2023-08-01T05:49:54;71211.50;;;-144.13;100.00
76374;BME280;65197;50.164;8.012;2023-08-01T05:52:20;71217.34;;;-144.13;100.00
76374;BME280;65197;50.164;8.012;2023-08-01T05:54:45;71217.34;;;-144.13;100.00
76374;BME280;65197;50.164;8.012;2023-08-01T05:57:10;71217.34;;;-144.13;100.00
76374;BME280;65197;50.164;8.012;2023-08-01T05:59:36;71209.53;;;-144.13;100.00
76374;BME280;65197;50.164;8.012;2023-08-01T06:02:02;71213.44;;;-144.13;100.00
76374;BME280;65197;50.164;8.012;2023-08-01T06:04:28;71221.22;;;-144.13;100.00
76374;BME280;65197;50.164;8.012;2023-08-01T06:06:53;71229.03;;;-144.13;100.00
76374;BME280;65197;50.164;8.012;2023-08-01T06:09:19;71229.03;;;-144.13;100.00
76374;BME280;65197;50.164;8.012;2023-08-01T06:11:44;71258.28;;;-144.13;100.00
76374;BME280;65197;50.164;8.012;2023-08-01T06:14:10;71275.81;;;-144.13;100.00
76374;BME280;65197;50.164;8.012;2023-08-01T06:16:35;71295.31;;;-144.13;100.00
76374;BME280;65197;50.164;8.012;2023-08-01T06:19:01;71316.75;;;-144.13;100.00
76374;BME280;65197;50.164;8.012;2023-08-01T06:21:26;71320.66;;;-144.13;100.00
76374;BME280;65197;50.164;8.012;2023-08-01T06:23:52;71320.66;;;-144.13;100.00
76374;BME280;65197;50.164;8.012;2023-08-01T06:26:17;71332.38;;;-144.13;100.00
76374;BME280;65197;50.164;8.012;2023-08-01T06:28:43;71334.31;;;-144.13;100.00
76374;BME280;65197;50.164;8.012;2023-08-01T06:31:08;71338.22;;;-144.13;100.00
76374;BME280;65197;50.164;8.012;2023-08-01T06:33:34;71338.22;;;-144.13;100.00
76374;BME280;65197;50.164;8.012;2023-08-01T06:35:59;71340.16;;;-144.13;100.00
76374;BME280;65197;50.164;8.012;2023-08-01T06:38:24;71346.00;;;-144.13;100.00
76374;BME280;65197;50.164;8.012;2023-08-01T06:40:50;71330.41;;;-144.13;100.00
76374;BME280;65197;50.164;8.012;2023-08-01T06:43:15;71324.56;;;-144.13;100.00
76374;BME280;65197;50.164;8.012;2023-08-01T06:45:41;71330.41;;;-144.13;100.00
76374;BME280;65197;50.164;8.012;2023-08-01T06:48:06;71322.63;;;-144.13;100.00
76374;BME280;65197;50.164;8.012;2023-08-01T06:50:33;71328.47;;;-144.13;100.00
76374;BME280;65197;50.164;8.012;2023-08-01T06:52:58;71326.50;;;-144.13;100.00
76374;BME280;65197;50.164;8.012;2023-08-01T06:55:24;71330.41;;;-144.13;100.00
76374;BME280;65197;50.164;8.012;2023-08-01T06:57:49;71307.03;;;-144.13;100.00
76374;BME280;65197;50.164;8.012;2023-08-01T07:00:14;71314.81;;;-144.13;100.00
76374;BME280;65197;50.164;8.012;2023-08-01T07:02:40;71303.13;;;-144.13;100.00
76374;BME280;65197;50.164;8.012;2023-08-01T07:05:05;71295.31;;;-144.13;100.00
76374;BME280;65197;50.164;8.012;2023-08-01T07:07:31;71287.53;;;-144.13;100.00
76374;BME280;65197;50.164;8.012;2023-08-01T07:09:56;71291.41;;;-144.13;100.00
76374;BME280;65197;50.164;8.012;2023-08-01T07:12:22;71307.03;;;-144.13;100.00
76374;BME280;65197;50.164;8.012;2023-08-01T07:14:47;71308.97;;;-144.13;100.00
76374;BME280;65197;50.164;8.012;2023-08-01T07:17:12;71273.88;;;-144.13;100.00
76374;BME280;65197;50.164;8.012;2023-08-01T07:19:38;71199.78;;;-144.13;100.00
76374;BME280;65197;50.164;8.012;2023-08-01T07:22:03;71076.97;;;-144.13;100.00
76374;BME280;65197;50.164;8.012;2023-08-01T07:24:29;70963.91;;;-144.13;100.00
76374;BME280;65197;50.164;8.012;2023-08-01T07:26:54;70885.91;;;-144.13;95.51
76374;BME280;65197;50.164;8.012;2023-08-01T07:29:19;70815.75;;;-144.13;91.53
76374;BME280;65197;50.164;8.012;2023-08-01T07:31:45;70804.03;;;-144.13;86.75
76374;BME280;65197;50.164;8.012;2023-08-01T07:34:11;70772.84;;;-144.13;87.65
76374;BME280;65197;50.164;8.012;2023-08-01T07:36:36;70823.53;;;-144.13;84.58
76374;BME280;65197;50.164;8.012;2023-08-01T07:39:02;70780.66;;;-144.13;78.83
76374;BME280;65197;50.164;8.012;2023-08-01T07:41:28;70807.94;;;-144.13;81.99
76374;BME280;65197;50.164;8.012;2023-08-01T07:43:53;70843.03;;;-144.13;84.19
76374;BME280;65197;50.164;8.012;2023-08-01T07:46:19;70837.19;;;-144.13;82.46
76374;BME280;65197;50.164;8.012;2023-08-01T07:48:44;70844.97;;;-144.13;83.70
76374;BME280;65197;50.164;8.012;2023-08-01T07:51:09;70854.72;;;-144.13;83.77
76374;BME280;65197;50.164;8.012;2023-08-01T07:53:36;70772.84;;;-144.13;86.08
76374;BME280;65197;50.164;8.012;2023-08-01T07:56:02;70735.81;;;-144.13;80.17
76374;BME280;65197;50.164;8.012;2023-08-01T07:58:29;70722.16;;;-144.13;82.13
76374;BME280;65197;50.164;8.012;2023-08-01T08:00:55;70768.94;;;-144.13;78.85
76374;BME280;65197;50.164;8.012;2023-08-01T08:03:20;70788.44;;;-144.13;80.09
76374;BME280;65197;50.164;8.012;2023-08-01T08:05:49;70749.47;;;-144.13;81.11
76374;BME280;65197;50.164;8.012;2023-08-01T08:08:14;70843.03;;;-144.13;79.98
76374;BME280;65197;50.164;8.012;2023-08-01T08:10:39;70846.94;;;-144.13;81.15
76374;BME280;65197;50.164;8.012;2023-08-01T08:13:05;70796.25;;;-144.13;82.37
76374;BME280;65197;50.164;8.012;2023-08-01T08:15:30;70819.63;;;-144.13;79.43
76374;BME280;65197;50.164;8.012;2023-08-01T08:18:00;70878.13;;;-144.13;84.40
76374;BME280;65197;50.164;8.012;2023-08-01T08:20:26;70846.94;;;-144.13;81.14
76374;BME280;65197;50.164;8.012;2023-08-01T08:22:51;70780.66;;;-144.13;81.52
76374;BME280;65197;50.164;8.012;2023-08-01T08:25:17;70757.25;;;-144.13;79.18
76374;BME280;65197;50.164;8.012;2023-08-01T08:27:42;70683.19;;;-144.13;77.01
76374;BME280;65197;50.164;8.012;2023-08-01T08:30:08;70659.78;;;-144.13;76.44
76374;BME280;65197;50.164;8.012;2023-08-01T08:32:35;70706.56;;;-144.13;72.61
76374;BME280;65197;50.164;8.012;2023-08-01T08:35:00;70796.25;;;-144.13;75.12
76374;BME280;65197;50.164;8.012;2023-08-01T08:37:26;70866.44;;;-144.13;79.06
76374;BME280;65197;50.164;8.012;2023-08-01T08:39:51;70960.00;;;-144.13;81.22
76374;BME280;65197;50.164;8.012;2023-08-01T08:42:18;70961.94;;;-144.13;83.01
76374;BME280;65197;50.164;8.012;2023-08-01T08:44:43;70987.28;;;-144.13;83.64
76374;BME280;65197;50.164;8.012;2023-08-01T08:47:11;71008.72;;;-144.13;86.44
76374;BME280;65197;50.164;8.012;2023-08-01T08:49:37;70975.59;;;-144.13;86.44
76374;BME280;65197;50.164;8.012;2023-08-01T08:52:04;70921.00;;;-144.13;80.93
76374;BME280;65197;50.164;8.012;2023-08-01T08:54:30;70852.78;;;-144.13;79.90
76374;BME280;65197;50.164;8.012;2023-08-01T08:56:56;70794.28;;;-144.13;78.45
76374;BME280;65197;50.164;8.012;2023-08-01T08:59:24;70841.09;;;-144.13;78.03
76374;BME280;65197;50.164;8.012;2023-08-01T09:01:50;70885.91;;;-144.13;79.37
76374;BME280;65197;50.164;8.012;2023-08-01T09:04:15;70936.59;;;-144.13;79.27
76374;BME280;65197;50.164;8.012;2023-08-01T09:06:46;70969.75;;;-144.13;80.94
76374;BME280;65197;50.164;8.012;2023-08-01T09:09:15;70981.44;;;-144.13;82.70
76374;BME280;65197;50.164;8.012;2023-08-01T09:11:43;70995.09;;;-144.13;82.20
76374;BME280;65197;50.164;8.012;2023-08-01T09:14:09;70944.41;;;-144.13;80.66
76374;BME280;65197;50.164;8.012;2023-08-01T09:16:35;70952.19;;;-144.13;80.38
76374;BME280;65197;50.164;8.012;2023-08-01T09:19:00;70987.28;;;-144.13;78.38
76374;BME280;65197;50.164;8.012;2023-08-01T09:21:26;71002.88;;;-144.13;79.76
76374;BME280;65197;50.164;8.012;2023-08-01T09:23:52;71020.44;;;-144.13;77.98
76374;BME280;65197;50.164;8.012;2023-08-01T09:26:19;70954.16;;;-144.13;76.08
76374;BME280;65197;50.164;8.012;2023-08-01T09:28:55;70768.94;;;-144.13;71.06
76374;BME280;65197;50.164;8.012;2023-08-01T09:31:29;70675.38;;;-144.13;68.88
76374;BME280;65197;50.164;8.012;2023-08-01T09:33:54;70646.16;;;-144.13;64.91
76374;BME280;65197;50.164;8.012;2023-08-01T09:36:21;70620.81;;;-144.13;63.66
76374;BME280;65197;50.164;8.012;2023-08-01T09:38:47;70574.03;;;-144.13;66.19
76374;BME280;65197;50.164;8.012;2023-08-01T09:41:19;70659.78;;;-144.13;62.93
76374;BME280;65197;50.164;8.012;2023-08-01T09:43:46;70702.69;;;-144.13;64.46
76374;BME280;65197;50.164;8.012;2023-08-01T09:46:12;70745.56;;;-144.13;66.94
76374;BME280;65197;50.164;8.012;2023-08-01T09:48:38;70778.69;;;-144.13;65.43
76374;BME280;65197;50.164;8.012;2023-08-01T09:53:33;70942.44;;;-144.13;69.71
76374;BME280;65197;50.164;8.012;2023-08-01T09:56:02;70999.00;;;-144.13;69.07
76374;BME280;65197;50.164;8.012;2023-08-01T09:58:33;71049.66;;;-144.13;73.73
76374;BME280;65197;50.164;8.012;2023-08-01T10:01:01;71082.81;;;-144.13;76.47
76374;BME280;65197;50.164;8.012;2023-08-01T10:03:29;70993.13;;;-144.13;76.99
76374;BME280;65197;50.164;8.012;2023-08-01T10:05:56;70819.63;;;-144.13;72.81
76374;BME280;65197;50.164;8.012;2023-08-01T10:08:22;70653.94;;;-144.13;67.15
76374;BME280;65197;50.164;8.012;2023-08-01T10:10:48;70675.38;;;-144.13;63.45
76374;BME280;65197;50.164;8.012;2023-08-01T10:13:14;70726.06;;;-144.13;65.03
76374;BME280;65197;50.164;8.012;2023-08-01T10:15:40;70858.63;;;-144.13;66.91
76374;BME280;65197;50.164;8.012;2023-08-01T10:18:07;70854.72;;;-144.13;65.71
76374;BME280;65197;50.164;8.012;2023-08-01T10:20:35;70905.41;;;-144.13;67.17
76374;BME280;65197;50.164;8.012;2023-08-01T10:23:02;70921.00;;;-144.13;68.66
76374;BME280;65197;50.164;8.012;2023-08-01T10:25:29;70909.31;;;-144.13;68.29
76374;BME280;65197;50.164;8.012;2023-08-01T10:28:03;70905.41;;;-144.13;69.40
76374;BME280;65197;50.164;8.012;2023-08-01T10:30:29;70870.31;;;-144.13;69.21
76374;BME280;65197;50.164;8.012;2023-08-01T10:32:56;70880.06;;;-144.13;68.12
76374;BME280;65197;50.164;8.012;2023-08-01T10:35:36;70821.59;;;-144.13;68.26
76374;BME280;65197;50.164;8.012;2023-08-01T10:38:10;70905.41;;;-144.13;68.55
76374;BME280;65197;50.164;8.012;2023-08-01T10:40:42;70924.91;;;-144.13;69.78
76374;BME280;65197;50.164;8.012;2023-08-01T10:43:21;70784.53;;;-144.13;67.82
76374;BME280;65197;50.164;8.012;2023-08-01T10:45:47;70702.69;;;-144.13;64.41
76374;BME280;65197;50.164;8.012;2023-08-01T10:48:13;70611.06;;;-144.13;60.51
76374;BME280;65197;50.164;8.012;2023-08-01T10:50:39;70540.88;;;-144.13;57.14
76374;BME280;65197;50.164;8.012;2023-08-01T10:53:07;70488.25;;;-144.13;56.83
76374;BME280;65197;50.164;8.012;2023-08-01T10:55:44;70570.13;;;-144.13;58.54
76374;BME280;65197;50.164;8.012;2023-08-01T10:58:10;70657.84;;;-144.13;58.16
76374;BME280;65197;50.164;8.012;2023-08-01T11:00:36;70786.50;;;-144.13;62.61
76374;BME280;65197;50.164;8.012;2023-08-01T11:03:01;70850.81;;;-144.13;70.85
76374;BME280;65197;50.164;8.012;2023-08-01T11:05:27;70973.66;;;-144.13;76.20
76374;BME280;65197;50.164;8.012;2023-08-01T11:08:01;71104.25;;;-144.13;83.33
76374;BME280;65197;50.164;8.012;2023-08-01T11:10:31;71106.22;;;-144.13;84.66
76374;BME280;65197;50.164;8.012;2023-08-01T11:12:58;70954.16;;;-144.13;81.55
76374;BME280;65197;50.164;8.012;2023-08-01T11:15:24;70819.63;;;-144.13;80.32
76374;BME280;65197;50.164;8.012;2023-08-01T11:17:51;70807.94;;;-144.13;75.34
76374;BME280;65197;50.164;8.012;2023-08-01T11:20:19;70772.84;;;-144.13;73.92
76374;BME280;65197;50.164;8.012;2023-08-01T11:23:03;70782.59;;;-144.13;72.24
76374;BME280;65197;50.164;8.012;2023-08-01T11:25:38;70698.78;;;-144.13;71.75
76374;BME280;65197;50.164;8.012;2023-08-01T11:28:09;70632.50;;;-144.13;67.58
76374;BME280;65197;50.164;8.012;2023-08-01T11:30:35;70784.53;;;-144.13;66.05
76374;BME280;65197;50.164;8.012;2023-08-01T11:33:02;70800.13;;;-144.13;71.35
76374;BME280;65197;50.164;8.012;2023-08-01T11:35:29;70848.88;;;-144.13;72.04
76374;BME280;65197;50.164;8.012;2023-08-01T11:37:56;70866.44;;;-144.13;71.63
76374;BME280;65197;50.164;8.012;2023-08-01T11:40:23;70870.31;;;-144.13;75.54
76374;BME280;65197;50.164;8.012;2023-08-01T11:42:49;70921.00;;;-144.13;71.64
76374;BME280;65197;50.164;8.012;2023-08-01T11:45:16;70965.84;;;-144.13;75.42
76374;BME280;65197;50.164;8.012;2023-08-01T11:47:46;71002.88;;;-144.13;79.24
76374;BME280;65197;50.164;8.012;2023-08-01T11:50:11;70991.19;;;-144.13;81.71
76374;BME280;65197;50.164;8.012;2023-08-01T11:52:37;71049.66;;;-144.13;77.98
76374;BME280;65197;50.164;8.012;2023-08-01T11:55:02;71154.94;;;-144.13;82.38
76374;BME280;65197;50.164;8.012;2023-08-01T11:57:28;71193.94;;;-144.13;84.71
76374;BME280;65197;50.164;8.012;2023-08-01T11:59:55;71230.97;;;-144.13;88.58
76374;BME280;65197;50.164;8.012;2023-08-01T12:02:28;71229.03;;;-144.13;92.42
76374;BME280;65197;50.164;8.012;2023-08-01T12:04:56;71178.34;;;-144.13;88.74
76374;BME280;65197;50.164;8.012;2023-08-01T12:07:25;71178.34;;;-144.13;88.12
76374;BME280;65197;50.164;8.012;2023-08-01T12:09:57;71193.94;;;-144.13;86.41
76374;BME280;65197;50.164;8.012;2023-08-01T12:12:23;71166.66;;;-144.13;86.62
76374;BME280;65197;50.164;8.012;2023-08-01T12:14:49;71123.75;;;-144.13;84.71
76374;BME280;65197;50.164;8.012;2023-08-01T12:17:14;71014.59;;;-144.13;80.70
76374;BME280;65197;50.164;8.012;2023-08-01T12:19:39;70963.91;;;-144.13;77.59
76374;BME280;65197;50.164;8.012;2023-08-01T12:22:05;70858.63;;;-144.13;76.44
76374;BME280;65197;50.164;8.012;2023-08-01T12:24:30;70815.75;;;-144.13;75.73
76374;BME280;65197;50.164;8.012;2023-08-01T12:26:56;70796.25;;;-144.13;70.68
76374;BME280;65197;50.164;8.012;2023-08-01T12:29:24;70759.22;;;-144.13;68.75
76374;BME280;65197;50.164;8.012;2023-08-01T12:31:49;70706.56;;;-144.13;70.66